Terminal Aerodrome Forecast
Issued by NWS

Home | Current Version | Previous Version | Text Only | Print | Product List | Glossary On
Versions: 1 2 3 4 5 6 7 8 9 10 11 12 13 14 15 16 17
000
FTAK31 PAJN 291700
TAFASI
TAF
PASI 291721Z 2918/3018 VRB04KT P6SM VCSH FEW080 SCT100
     FM292000 18008KT P6SM -SHRA SCT025 BKN050 BKN100
     FM300400 14006KT P6SM -SHRA SCT020 BKN040 OVC060
     FM301500 VRB03KT P6SM VCSH SCT025 BKN050 BKN100=

USA.gov is the U.S. government's official web portal to all federal, state and local government web resources and services.